createdAt,value
2023-01-25T00:00:31.547Z,28.55
2023-01-25T00:02:58.679Z,24.00
2023-01-25T00:05:25.923Z,25.45
2023-01-25T00:07:52.936Z,22.48
2023-01-25T00:10:20.404Z,24.48
2023-01-25T00:12:47.456Z,22.85
2023-01-25T00:15:14.752Z,25.73
2023-01-25T00:17:41.785Z,28.13
2023-01-25T00:20:09.664Z,23.02
2023-01-25T00:22:36.836Z,26.20
2023-01-25T00:25:03.985Z,21.50
2023-01-25T00:27:30.956Z,23.95
2023-01-25T00:29:57.916Z,24.80
2023-01-25T00:32:32.694Z,23.17
2023-01-25T00:34:59.755Z,20.90
2023-01-25T00:37:29.667Z,25.63
2023-01-25T00:39:56.760Z,24.55
2023-01-25T00:42:23.782Z,24.83
2023-01-25T00:44:50.876Z,20.88
2023-01-25T00:47:18.174Z,20.38
2023-01-25T00:49:46.203Z,23.30
2023-01-25T00:52:13.762Z,22.05
2023-01-25T00:54:41.114Z,26.33
2023-01-25T00:57:08.818Z,24.10
2023-01-25T00:59:36.132Z,24.17
2023-01-25T01:02:03.934Z,23.13
2023-01-25T01:04:31.719Z,22.48
2023-01-25T01:06:58.964Z,21.98
2023-01-25T01:09:26.469Z,21.92
2023-01-25T01:11:53.923Z,25.92
2023-01-25T01:14:22.517Z,23.85
2023-01-25T01:16:49.642Z,21.17
2023-01-25T01:19:16.667Z,23.90
2023-01-25T01:21:43.602Z,20.70
2023-01-25T01:24:11.544Z,17.98
2023-01-25T01:26:38.937Z,25.02
2023-01-25T01:29:05.973Z,20.55
2023-01-25T01:31:33.222Z,19.27
2023-01-25T01:34:01.299Z,17.33
2023-01-25T01:36:30.469Z,24.05
2023-01-25T01:39:00.018Z,22.88
2023-01-25T01:41:27.523Z,25.35
2023-01-25T01:43:54.821Z,20.27
2023-01-25T01:46:28.360Z,21.17
2023-01-25T01:49:10.322Z,29.37
2023-01-25T01:51:48.206Z,22.98
2023-01-25T01:54:27.335Z,26.30
2023-01-25T01:56:54.192Z,26.55
2023-01-25T01:59:25.193Z,27.30
2023-01-25T02:01:52.372Z,22.63
2023-01-25T02:04:22.575Z,25.60
2023-01-25T02:06:57.675Z,23.83
2023-01-25T02:09:27.849Z,27.75
2023-01-25T02:11:57.032Z,23.20
2023-01-25T02:14:24.130Z,26.02
2023-01-25T02:16:51.135Z,24.50
2023-01-25T02:19:49.096Z,24.73
2023-01-25T02:22:20.497Z,28.08
2023-01-25T02:24:54.200Z,27.95
2023-01-25T02:27:22.270Z,29.27
2023-01-25T02:29:49.640Z,26.30
2023-01-25T02:32:16.716Z,33.78
2023-01-25T02:34:43.646Z,27.67
2023-01-25T02:37:15.163Z,26.10
2023-01-25T02:39:42.802Z,30.45
2023-01-25T02:42:09.870Z,27.05
2023-01-25T02:44:38.842Z,30.55
2023-01-25T02:47:05.913Z,30.35
2023-01-25T02:49:38.408Z,27.35
2023-01-25T02:52:05.927Z,31.95
2023-01-25T02:54:33.120Z,26.58
2023-01-25T02:57:00.150Z,29.35
2023-01-25T02:59:27.203Z,25.05
2023-01-25T03:01:54.231Z,27.10
2023-01-25T03:04:21.269Z,29.65
2023-01-25T03:06:48.259Z,27.70
2023-01-25T03:09:15.276Z,29.42
2023-01-25T03:11:42.417Z,26.95
2023-01-25T03:14:09.365Z,27.05
2023-01-25T03:16:36.553Z,28.75
2023-01-25T03:19:03.504Z,30.17
2023-01-25T03:21:31.295Z,29.63
2023-01-25T03:24:00.739Z,28.58
2023-01-25T03:26:29.031Z,28.60
2023-01-25T03:28:56.313Z,27.83
2023-01-25T03:31:23.506Z,26.83
2023-01-25T03:33:50.612Z,27.40
2023-01-25T03:36:17.735Z,24.60
2023-01-25T03:38:44.801Z,25.63
2023-01-25T03:41:13.831Z,29.08
2023-01-25T03:43:40.907Z,24.65
2023-01-25T03:46:07.947Z,24.02
2023-01-25T03:48:34.948Z,25.52
2023-01-25T03:51:02.119Z,24.88
2023-01-25T03:53:30.926Z,24.08
2023-01-25T03:55:59.824Z,26.00
2023-01-25T03:58:27.800Z,24.80
2023-01-25T04:00:56.660Z,24.05
2023-01-25T04:03:25.278Z,24.63
2023-01-25T04:05:53.811Z,22.15
2023-01-25T04:08:21.673Z,23.13
2023-01-25T04:10:56.421Z,20.95
2023-01-25T04:13:24.879Z,22.42
2023-01-25T04:15:51.862Z,26.92
2023-01-25T04:18:19.534Z,23.00
2023-01-25T04:20:51.981Z,21.98
2023-01-25T04:23:18.957Z,22.08
2023-01-25T04:25:59.166Z,23.75
2023-01-25T04:28:27.312Z,18.55
2023-01-25T04:30:56.000Z,23.58
2023-01-25T04:33:23.263Z,23.25
2023-01-25T04:35:50.379Z,22.45
2023-01-25T04:38:18.086Z,25.25
2023-01-25T04:40:45.902Z,23.55
2023-01-25T04:43:14.400Z,27.60
2023-01-25T04:45:41.419Z,21.13
2023-01-25T04:48:10.258Z,23.88
2023-01-25T04:50:41.442Z,26.30
2023-01-25T04:53:09.652Z,24.45
2023-01-25T04:55:36.918Z,23.52
2023-01-25T04:58:04.479Z,25.25
2023-01-25T05:00:32.571Z,29.10
2023-01-25T05:02:59.572Z,28.88
2023-01-25T05:05:26.685Z,29.35
2023-01-25T05:07:53.650Z,25.70
2023-01-25T05:10:20.857Z,27.48
2023-01-25T05:12:47.880Z,31.48
2023-01-25T05:15:15.115Z,30.13
2023-01-25T05:17:42.136Z,25.48
2023-01-25T05:20:09.927Z,30.42
2023-01-25T05:22:36.900Z,29.92
2023-01-25T05:25:04.321Z,27.92
2023-01-25T05:27:31.354Z,31.48
2023-01-25T05:29:58.382Z,36.60
2023-01-25T05:32:25.501Z,30.63
2023-01-25T05:34:52.721Z,28.55
2023-01-25T05:37:21.099Z,40.03
2023-01-25T05:39:48.372Z,34.13
2023-01-25T05:42:17.712Z,31.23
2023-01-25T05:44:47.487Z,31.73
2023-01-25T05:47:16.793Z,37.42
2023-01-25T05:49:44.018Z,38.40
2023-01-25T05:52:14.790Z,38.28
2023-01-25T05:54:42.001Z,38.53
2023-01-25T05:57:09.056Z,37.03
2023-01-25T05:59:36.101Z,40.17
2023-01-25T06:02:03.091Z,35.35
2023-01-25T06:04:30.244Z,35.25
2023-01-25T06:06:57.409Z,37.88
2023-01-25T06:09:24.470Z,35.83
2023-01-25T06:11:51.397Z,37.20
2023-01-25T06:14:18.543Z,41.33
2023-01-25T06:16:45.618Z,34.22
2023-01-25T06:19:14.363Z,35.40
2023-01-25T06:21:41.323Z,38.45
2023-01-25T06:24:08.524Z,40.53
2023-01-25T06:26:35.626Z,40.78
2023-01-25T06:29:05.046Z,44.65
2023-01-25T06:31:32.061Z,37.42
2023-01-25T06:34:01.115Z,30.95
2023-01-25T06:36:28.332Z,43.35
2023-01-25T06:38:55.310Z,33.22
2023-01-25T06:41:23.308Z,36.53
2023-01-25T06:43:53.553Z,41.70
2023-01-25T06:46:20.866Z,37.65
2023-01-25T06:48:48.212Z,40.13
2023-01-25T06:51:16.495Z,37.97
2023-01-25T06:53:45.537Z,39.63
2023-01-25T06:56:18.486Z,38.05
2023-01-25T06:58:46.340Z,36.50
2023-01-25T07:01:20.512Z,49.50
2023-01-25T07:03:56.459Z,38.40
2023-01-25T07:06:24.480Z,42.05
2023-01-25T07:08:51.643Z,39.72
2023-01-25T07:11:19.300Z,36.47
2023-01-25T07:13:47.867Z,43.05
2023-01-25T07:16:20.138Z,45.35
2023-01-25T07:18:47.820Z,37.20
2023-01-25T07:21:17.448Z,42.47
2023-01-25T07:23:45.099Z,36.78
2023-01-25T07:26:22.216Z,36.22
2023-01-25T07:28:49.933Z,37.78
2023-01-25T07:31:18.169Z,34.58
2023-01-25T07:33:51.512Z,38.70
2023-01-25T07:36:19.373Z,39.70
2023-01-25T07:38:46.678Z,37.45
2023-01-25T07:41:14.739Z,40.10
2023-01-25T07:43:41.785Z,38.42
2023-01-25T07:46:14.049Z,37.47
2023-01-25T07:48:45.773Z,44.80
2023-01-25T07:51:13.023Z,38.70
2023-01-25T07:53:40.853Z,36.38
2023-01-25T07:56:10.655Z,38.55
2023-01-25T07:58:38.268Z,33.58
2023-01-25T08:01:13.360Z,34.85
2023-01-25T08:03:40.868Z,38.30
2023-01-25T08:06:09.180Z,42.17
2023-01-25T08:08:38.447Z,41.15
2023-01-25T08:11:20.375Z,44.42
2023-01-25T08:13:49.737Z,35.78
2023-01-25T08:16:19.045Z,42.03
2023-01-25T08:18:50.501Z,35.40
2023-01-25T08:21:17.796Z,41.88
2023-01-25T08:23:45.396Z,40.85
2023-01-25T08:26:14.811Z,38.38
2023-01-25T08:28:41.797Z,40.88
2023-01-25T08:31:14.043Z,40.60
2023-01-25T08:33:42.519Z,32.60
2023-01-25T08:36:11.110Z,38.33
2023-01-25T08:38:38.385Z,39.67
2023-01-25T08:41:11.113Z,42.00
2023-01-25T08:43:38.668Z,36.55
2023-01-25T08:46:06.233Z,40.65
2023-01-25T08:48:33.533Z,41.83
2023-01-25T08:51:01.012Z,39.20
2023-01-25T08:53:29.324Z,36.17
2023-01-25T08:55:56.726Z,34.50
2023-01-25T08:58:23.770Z,33.28
2023-01-25T09:00:50.820Z,32.03
2023-01-25T09:03:18.369Z,33.20
2023-01-25T09:05:45.711Z,38.95
2023-01-25T09:08:12.860Z,31.27
2023-01-25T09:10:39.832Z,36.67
2023-01-25T09:13:08.641Z,35.20
2023-01-25T09:15:35.889Z,35.50
2023-01-25T09:18:02.924Z,41.53
2023-01-25T09:20:33.090Z,48.15
2023-01-25T09:23:01.486Z,45.22
2023-01-25T09:25:28.461Z,50.22
2023-01-25T09:27:55.418Z,42.50
2023-01-25T09:30:33.603Z,42.33
2023-01-25T09:33:05.089Z,52.83
2023-01-25T09:35:32.127Z,40.17
2023-01-25T09:37:59.117Z,48.70
2023-01-25T09:40:34.310Z,46.97
2023-01-25T09:43:13.503Z,59.38
2023-01-25T09:45:40.735Z,61.42
2023-01-25T09:48:36.015Z,58.83
2023-01-25T09:53:56.487Z,55.17
2023-01-25T09:56:27.931Z,55.47
2023-01-25T09:58:59.359Z,66.05
2023-01-25T10:01:42.049Z,52.13
2023-01-25T10:04:23.508Z,53.13
2023-01-25T10:07:00.039Z,56.67
2023-01-25T10:09:51.696Z,54.05
2023-01-25T10:12:28.775Z,52.45
2023-01-25T10:14:55.753Z,61.90
2023-01-25T10:17:40.131Z,58.13
2023-01-25T10:20:24.232Z,57.45
2023-01-25T10:23:00.112Z,59.88
2023-01-25T10:25:45.749Z,59.97
2023-01-25T10:28:18.905Z,62.85
2023-01-25T10:31:11.604Z,60.22
2023-01-25T10:33:43.355Z,59.80
2023-01-25T10:36:15.165Z,62.63
2023-01-25T10:38:49.168Z,62.35
2023-01-25T10:41:18.950Z,63.17
2023-01-25T10:43:46.001Z,60.60
2023-01-25T10:46:26.862Z,62.80
2023-01-25T10:48:53.888Z,59.08
2023-01-25T10:51:39.012Z,65.70
2023-01-25T10:54:06.868Z,69.30
2023-01-25T10:56:36.426Z,62.25
2023-01-25T10:59:25.582Z,62.67
2023-01-25T11:01:52.966Z,61.50
2023-01-25T11:04:39.405Z,60.10
2023-01-25T11:07:06.596Z,55.15
2023-01-25T11:09:39.591Z,67.50
2023-01-25T11:12:20.811Z,57.83
2023-01-25T11:14:49.961Z,55.67
2023-01-25T11:17:31.908Z,61.47
2023-01-25T11:20:19.343Z,55.85
2023-01-25T11:22:55.376Z,60.20
2023-01-25T11:25:35.380Z,58.10
2023-01-25T11:28:19.534Z,59.75
2023-01-25T11:30:47.168Z,50.90
2023-01-25T11:33:16.362Z,62.85
2023-01-25T11:36:35.852Z,63.97
2023-01-25T11:39:11.813Z,55.28
2023-01-25T11:42:06.703Z,54.33
2023-01-25T11:45:01.210Z,65.45
2023-01-25T11:48:03.796Z,60.45
2023-01-25T11:50:47.409Z,50.75
2023-01-25T11:53:36.167Z,53.63
2023-01-25T11:56:05.956Z,54.67
2023-01-25T11:58:32.889Z,50.75
2023-01-25T12:01:27.461Z,55.67
2023-01-25T12:04:29.300Z,52.95
2023-01-25T12:07:00.651Z,51.55
2023-01-25T12:09:27.611Z,54.10
2023-01-25T12:12:15.455Z,52.60
2023-01-25T12:14:49.827Z,58.38
2023-01-25T12:17:25.679Z,52.50
2023-01-25T12:20:13.335Z,55.92
2023-01-25T12:22:53.663Z,47.03
2023-01-25T12:25:38.102Z,46.08
2023-01-25T12:28:27.555Z,51.63
2023-01-25T12:31:00.174Z,42.90
2023-01-25T12:33:47.997Z,41.92
2023-01-25T12:36:39.902Z,49.20
2023-01-25T12:39:14.027Z,49.22
2023-01-25T12:41:57.361Z,52.47
2023-01-25T12:44:36.289Z,48.42
2023-01-25T12:47:22.490Z,51.60
2023-01-25T12:50:20.412Z,49.72
2023-01-25T12:53:05.372Z,57.78
2023-01-25T12:55:33.668Z,50.90
2023-01-25T12:58:36.982Z,50.80
2023-01-25T13:01:31.940Z,48.22
2023-01-25T13:04:20.450Z,52.97
2023-01-25T13:07:15.837Z,43.13
2023-01-25T13:09:42.799Z,48.92
2023-01-25T13:12:12.155Z,41.42
2023-01-25T13:14:40.835Z,51.25
2023-01-25T13:17:35.552Z,46.17
2023-01-25T13:20:35.316Z,44.92
2023-01-25T13:23:02.662Z,49.03
2023-01-25T13:25:29.700Z,47.55
2023-01-25T13:28:42.105Z,42.08
2023-01-25T13:31:09.354Z,44.80
2023-01-25T13:33:36.682Z,44.05
2023-01-25T13:36:46.333Z,46.08
2023-01-25T13:39:25.348Z,41.67
2023-01-25T13:41:59.727Z,45.25
2023-01-25T13:44:29.175Z,46.80
2023-01-25T13:46:59.351Z,45.13
2023-01-25T13:49:34.325Z,44.28
2023-01-25T13:52:02.266Z,45.90
2023-01-25T13:54:29.250Z,44.58
2023-01-25T13:57:07.205Z,46.80
2023-01-25T13:59:34.416Z,46.28
2023-01-25T14:02:02.640Z,43.38
2023-01-25T14:04:32.969Z,50.88
2023-01-25T14:07:09.839Z,45.58
2023-01-25T14:09:37.347Z,48.13
2023-01-25T14:12:08.684Z,48.35
2023-01-25T14:14:36.357Z,47.28
2023-01-25T14:17:15.443Z,54.55
2023-01-25T14:19:51.979Z,47.30
2023-01-25T14:22:31.771Z,45.88
2023-01-25T14:25:13.504Z,47.13
2023-01-25T14:27:55.815Z,50.92
2023-01-25T14:30:34.785Z,50.30
2023-01-25T14:33:22.508Z,47.85
2023-01-25T14:35:56.373Z,52.65
2023-01-25T14:38:35.732Z,54.42
2023-01-25T14:41:12.010Z,50.05
2023-01-25T14:43:43.222Z,50.05
2023-01-25T14:46:32.580Z,50.22
2023-01-25T14:49:25.549Z,54.90
2023-01-25T14:52:12.762Z,47.17
2023-01-25T14:54:51.560Z,53.90
2023-01-25T14:57:37.076Z,50.75
2023-01-25T15:00:31.760Z,45.90
2023-01-25T15:03:01.681Z,54.35
2023-01-25T15:05:34.505Z,48.10
2023-01-25T15:08:07.452Z,55.15
2023-01-25T15:10:36.371Z,53.85
2023-01-25T15:13:15.347Z,51.17
2023-01-25T15:16:01.724Z,49.20
2023-01-25T15:18:51.352Z,52.10
2023-01-25T15:21:20.869Z,54.78
2023-01-25T15:23:49.287Z,49.70
2023-01-25T15:26:24.790Z,55.72
2023-01-25T15:28:54.206Z,53.53
2023-01-25T15:31:28.341Z,55.38
2023-01-25T15:33:57.032Z,59.17
2023-01-25T15:36:24.178Z,52.40
2023-01-25T15:38:51.230Z,54.88
2023-01-25T15:41:18.869Z,63.58
2023-01-25T15:43:46.599Z,56.47
2023-01-25T15:46:28.446Z,56.80
2023-01-25T15:48:55.952Z,57.15
2023-01-25T15:51:23.780Z,59.33
2023-01-25T15:53:51.015Z,63.03
2023-01-25T15:56:20.702Z,60.40
2023-01-25T15:58:54.383Z,57.03
2023-01-25T16:01:27.516Z,56.67
2023-01-25T16:03:59.514Z,55.33
2023-01-25T16:06:31.985Z,59.25
2023-01-25T16:09:00.662Z,51.47
2023-01-25T16:11:28.012Z,57.58
2023-01-25T16:13:55.068Z,53.85
2023-01-25T16:16:24.399Z,53.63
2023-01-25T16:18:51.430Z,54.45
2023-01-25T16:21:19.102Z,50.03
2023-01-25T16:23:46.340Z,57.75
2023-01-25T16:26:24.419Z,55.33
2023-01-25T16:28:51.551Z,57.58
2023-01-25T16:31:31.175Z,56.05
2023-01-25T16:34:00.251Z,54.45
2023-01-25T16:36:27.597Z,55.50
2023-01-25T16:38:54.591Z,54.75
2023-01-25T16:41:21.655Z,55.05
2023-01-25T16:43:49.648Z,56.75
2023-01-25T16:46:22.814Z,56.13
2023-01-25T16:48:52.234Z,55.88
2023-01-25T16:51:24.698Z,51.50
2023-01-25T16:53:54.030Z,49.55
2023-01-25T16:56:23.461Z,56.70
2023-01-25T16:58:52.340Z,53.58
2023-01-25T17:01:21.328Z,53.00
2023-01-25T17:03:48.938Z,62.35
2023-01-25T17:06:20.812Z,57.78
2023-01-25T17:08:48.754Z,64.80
2023-01-25T17:11:19.041Z,54.47
2023-01-25T17:13:54.170Z,60.53
2023-01-25T17:16:22.301Z,60.70
2023-01-25T17:18:54.926Z,61.85
2023-01-25T17:21:22.858Z,61.08
2023-01-25T17:23:50.548Z,53.67
2023-01-25T17:26:19.357Z,52.25
2023-01-25T17:28:48.422Z,50.67
2023-01-25T17:31:17.614Z,48.45
2023-01-25T17:33:45.334Z,54.90
2023-01-25T17:36:15.140Z,60.85
2023-01-25T17:38:42.908Z,52.08
2023-01-25T17:41:12.202Z,57.75
2023-01-25T17:43:39.709Z,58.47
2023-01-25T17:46:26.197Z,53.90
2023-01-25T17:48:53.778Z,59.13
2023-01-25T17:51:23.434Z,60.50
2023-01-25T17:53:52.025Z,51.22
2023-01-25T17:56:19.738Z,55.92
2023-01-25T17:58:47.468Z,53.22
2023-01-25T18:01:17.496Z,55.28
2023-01-25T18:03:45.984Z,70.40
2023-01-25T18:06:16.883Z,68.25
2023-01-25T18:08:48.997Z,67.53
2023-01-25T18:11:19.902Z,60.65
2023-01-25T18:13:49.496Z,65.25
2023-01-25T18:16:19.179Z,68.65
2023-01-25T18:18:46.418Z,58.83
2023-01-25T18:21:25.272Z,66.63
2023-01-25T18:23:57.400Z,54.10
2023-01-25T18:26:30.343Z,62.85
2023-01-25T18:29:08.215Z,66.43
2023-01-25T18:31:35.528Z,64.00
2023-01-25T18:34:02.742Z,60.85
2023-01-25T18:36:29.705Z,61.95
2023-01-25T18:38:58.406Z,51.00
2023-01-25T18:41:25.443Z,61.92
2023-01-25T18:43:52.480Z,62.97
2023-01-25T18:46:19.667Z,59.88
2023-01-25T18:48:47.360Z,60.25
2023-01-25T18:51:17.586Z,57.50
2023-01-25T18:53:47.461Z,58.72
2023-01-25T18:56:22.131Z,58.20
2023-01-25T19:01:18.445Z,55.92
2023-01-25T19:03:46.678Z,55.53
2023-01-25T19:06:14.429Z,50.03
2023-01-25T19:08:44.291Z,57.60
2023-01-25T19:11:14.804Z,58.95
2023-01-25T19:13:43.704Z,53.63
2023-01-25T19:16:14.483Z,55.85
2023-01-25T19:18:50.733Z,59.08
2023-01-25T19:21:21.052Z,60.53
2023-01-25T19:23:48.579Z,58.08
2023-01-25T19:26:17.970Z,52.22
2023-01-25T19:28:45.618Z,49.33
2023-01-25T19:31:15.377Z,47.40
2023-01-25T19:33:42.905Z,53.80
2023-01-25T19:36:16.779Z,42.28
2023-01-25T19:38:44.525Z,50.20
2023-01-25T19:41:14.093Z,48.20
2023-01-25T19:43:41.690Z,47.15
2023-01-25T19:46:14.736Z,45.75
2023-01-25T19:48:42.700Z,44.85
2023-01-25T19:51:27.779Z,45.88
2023-01-25T19:53:59.101Z,49.15
2023-01-25T19:56:28.635Z,48.13
2023-01-25T19:58:55.656Z,46.53
2023-01-25T20:01:26.184Z,51.10
2023-01-25T20:03:58.958Z,39.13
2023-01-25T20:06:27.864Z,49.05
2023-01-25T20:08:55.036Z,47.55
2023-01-25T20:11:27.587Z,44.97
2023-01-25T20:13:57.221Z,41.00
2023-01-25T20:16:25.408Z,43.42
2023-01-25T20:18:52.418Z,39.67
2023-01-25T20:21:21.752Z,40.50
2023-01-25T20:23:53.299Z,45.67
2023-01-25T20:26:23.290Z,44.35
2023-01-25T20:28:52.684Z,41.13
2023-01-25T20:31:25.605Z,46.65
2023-01-25T20:34:01.681Z,48.58
2023-01-25T20:36:30.976Z,44.22
2023-01-25T20:38:58.376Z,47.70
2023-01-25T20:41:25.889Z,43.05
2023-01-25T20:43:54.043Z,43.67
2023-01-25T20:46:22.159Z,44.22
2023-01-25T20:48:49.688Z,48.33
2023-01-25T20:51:21.555Z,48.65
2023-01-25T20:53:50.211Z,66.95
2023-01-25T20:56:19.109Z,48.13
2023-01-25T20:58:50.536Z,53.00
2023-01-25T21:01:20.677Z,62.28
2023-01-25T21:03:48.370Z,47.65
2023-01-25T21:06:16.304Z,46.70
2023-01-25T21:08:43.809Z,46.22
2023-01-25T21:11:11.657Z,45.40
2023-01-25T21:13:38.683Z,47.90
2023-01-25T21:16:06.075Z,47.83
2023-01-25T21:18:35.590Z,47.00
2023-01-25T21:21:05.541Z,44.17
2023-01-25T21:23:36.415Z,45.13
2023-01-25T21:26:05.746Z,41.78
2023-01-25T21:28:33.875Z,48.28
2023-01-25T21:31:28.285Z,46.53
2023-01-25T21:33:56.196Z,44.15
2023-01-25T21:36:23.897Z,44.25
2023-01-25T21:38:53.439Z,47.13
2023-01-25T21:41:26.530Z,44.58
2023-01-25T21:44:14.035Z,44.35
2023-01-25T21:46:42.145Z,43.47
2023-01-25T21:49:30.259Z,43.05
2023-01-25T21:52:01.985Z,46.55
2023-01-25T21:54:30.415Z,43.95
2023-01-25T21:56:59.071Z,45.90
2023-01-25T21:59:27.113Z,49.08
2023-01-25T22:01:55.228Z,47.13
2023-01-25T22:04:24.754Z,48.67
2023-01-25T22:06:54.937Z,43.08
2023-01-25T22:09:22.859Z,45.30
2023-01-25T22:11:51.009Z,42.17
2023-01-25T22:14:23.353Z,44.67
2023-01-25T22:16:54.324Z,41.25
2023-01-25T22:19:21.575Z,43.45
2023-01-25T22:21:48.720Z,40.13
2023-01-25T22:24:16.055Z,41.15
2023-01-25T22:26:45.804Z,40.08
2023-01-25T22:29:13.387Z,46.25
2023-01-25T22:31:41.205Z,49.33
2023-01-25T22:34:08.479Z,43.72
2023-01-25T22:36:35.513Z,40.53
2023-01-25T22:39:02.568Z,38.28
2023-01-25T22:41:32.346Z,48.58
2023-01-25T22:43:59.431Z,37.33
2023-01-25T22:46:28.661Z,34.67
2023-01-25T22:48:57.327Z,41.78
2023-01-25T22:51:29.692Z,37.38
2023-01-25T22:53:58.471Z,36.17
2023-01-25T22:56:32.069Z,37.55
2023-01-25T22:59:00.525Z,38.90
2023-01-25T23:01:33.161Z,40.38
2023-01-25T23:04:00.838Z,40.42
2023-01-25T23:06:35.627Z,39.35
2023-01-25T23:09:06.150Z,35.10
2023-01-25T23:11:37.466Z,36.45
2023-01-25T23:14:25.539Z,44.72
2023-01-25T23:16:52.619Z,35.33
2023-01-25T23:19:19.977Z,32.50
2023-01-25T23:21:46.993Z,34.92
2023-01-25T23:24:14.042Z,37.42
2023-01-25T23:26:46.663Z,33.47
2023-01-25T23:29:14.485Z,36.25
2023-01-25T23:31:41.628Z,32.42
2023-01-25T23:34:08.620Z,32.80
2023-01-25T23:36:38.948Z,36.35
2023-01-25T23:39:06.322Z,30.83
2023-01-25T23:41:33.559Z,35.65
2023-01-25T23:44:00.986Z,32.35
2023-01-25T23:46:28.605Z,32.63
2023-01-25T23:48:56.213Z,30.38
2023-01-25T23:51:24.103Z,32.85
2023-01-25T23:53:53.552Z,34.60
2023-01-25T23:56:21.930Z,30.27
2023-01-25T23:58:50.249Z,40.75
